sensor_id;sensor_type;location;lat;lon;timestamp;temperature;humidity
38973;DHT22;25333;50.762;4.470;2023-11-21T00:02:13;9.50;99.90
38973;DHT22;25333;50.762;4.470;2023-11-21T00:04:39;9.50;99.90
38973;DHT22;25333;50.762;4.470;2023-11-21T00:07:05;9.50;99.90
38973;DHT22;25333;50.762;4.470;2023-11-21T00:09:31;9.50;99.90
38973;DHT22;25333;50.762;4.470;2023-11-21T00:11:57;9.40;99.90
38973;DHT22;25333;50.762;4.470;2023-11-21T00:14:24;9.40;99.90
38973;DHT22;25333;50.762;4.470;2023-11-21T00:16:50;9.40;99.90
38973;DHT22;25333;50.762;4.470;2023-11-21T00:19:16;9.40;99.90
38973;DHT22;25333;50.762;4.470;2023-11-21T00:21:42;9.50;99.90
38973;DHT22;25333;50.762;4.470;2023-11-21T00:24:10;9.50;99.90
38973;DHT22;25333;50.762;4.470;2023-11-21T00:26:35;9.50;99.90
38973;DHT22;25333;50.762;4.470;2023-11-21T00:29:03;9.50;99.90
38973;DHT22;25333;50.762;4.470;2023-11-21T00:31:29;9.50;99.90
38973;DHT22;25333;50.762;4.470;2023-11-21T00:33:56;9.40;99.90
38973;DHT22;25333;50.762;4.470;2023-11-21T00:36:21;9.50;99.90
38973;DHT22;25333;50.762;4.470;2023-11-21T00:38:47;9.50;99.90
38973;DHT22;25333;50.762;4.470;2023-11-21T00:41:14;9.40;99.90
38973;DHT22;25333;50.762;4.470;2023-11-21T00:43:39;9.40;99.90
38973;DHT22;25333;50.762;4.470;2023-11-21T00:46:05;9.40;99.90
38973;DHT22;25333;50.762;4.470;2023-11-21T00:48:34;9.40;99.90
38973;DHT22;25333;50.762;4.470;2023-11-21T00:51:00;9.50;99.90
38973;DHT22;25333;50.762;4.470;2023-11-21T00:53:26;9.50;99.90
38973;DHT22;25333;50.762;4.470;2023-11-21T00:55:52;9.50;99.90
38973;DHT22;25333;50.762;4.470;2023-11-21T00:58:23;9.40;99.90
38973;DHT22;25333;50.762;4.470;2023-11-21T01:00:48;9.50;99.90
38973;DHT22;25333;50.762;4.470;2023-11-21T01:03:14;9.50;99.90
38973;DHT22;25333;50.762;4.470;2023-11-21T01:05:40;9.40;99.90
38973;DHT22;25333;50.762;4.470;2023-11-21T01:08:05;9.40;99.90
38973;DHT22;25333;50.762;4.470;2023-11-21T01:10:31;9.40;99.90
38973;DHT22;25333;50.762;4.470;2023-11-21T01:12:57;9.40;99.90
38973;DHT22;25333;50.762;4.470;2023-11-21T01:15:23;9.30;99.90
38973;DHT22;25333;50.762;4.470;2023-11-21T01:17:51;9.30;99.90
38973;DHT22;25333;50.762;4.470;2023-11-21T01:20:17;9.30;99.90
38973;DHT22;25333;50.762;4.470;2023-11-21T01:22:43;9.30;99.90
38973;DHT22;25333;50.762;4.470;2023-11-21T01:25:10;9.30;99.90
38973;DHT22;25333;50.762;4.470;2023-11-21T01:27:36;9.20;99.90
38973;DHT22;25333;50.762;4.470;2023-11-21T01:30:05;9.20;99.90
38973;DHT22;25333;50.762;4.470;2023-11-21T01:32:33;9.10;99.90
38973;DHT22;25333;50.762;4.470;2023-11-21T01:35:00;9.10;99.90
38973;DHT22;25333;50.762;4.470;2023-11-21T01:37:25;9.10;99.90
38973;DHT22;25333;50.762;4.470;2023-11-21T01:39:54;9.10;99.90
38973;DHT22;25333;50.762;4.470;2023-11-21T01:42:20;9.10;99.90
38973;DHT22;25333;50.762;4.470;2023-11-21T01:44:46;9.10;99.90
38973;DHT22;25333;50.762;4.470;2023-11-21T01:47:13;9.10;99.90
38973;DHT22;25333;50.762;4.470;2023-11-21T01:49:39;9.10;99.90
38973;DHT22;25333;50.762;4.470;2023-11-21T01:52:05;9.10;99.90
38973;DHT22;25333;50.762;4.470;2023-11-21T01:54:32;9.20;99.90
38973;DHT22;25333;50.762;4.470;2023-11-21T01:56:58;9.20;99.90
38973;DHT22;25333;50.762;4.470;2023-11-21T01:59:36;9.20;99.90
38973;DHT22;25333;50.762;4.470;2023-11-21T02:02:06;9.10;99.90
38973;DHT22;25333;50.762;4.470;2023-11-21T02:04:33;9.20;99.90
38973;DHT22;25333;50.762;4.470;2023-11-21T02:06:59;9.20;99.90
38973;DHT22;25333;50.762;4.470;2023-11-21T02:09:28;9.20;99.90
38973;DHT22;25333;50.762;4.470;2023-11-21T02:11:58;9.20;99.90
38973;DHT22;25333;50.762;4.470;2023-11-21T02:14:27;9.20;99.90
38973;DHT22;25333;50.762;4.470;2023-11-21T02:16:55;9.20;99.90
38973;DHT22;25333;50.762;4.470;2023-11-21T02:19:21;9.20;99.90
38973;DHT22;25333;50.762;4.470;2023-11-21T02:21:57;9.20;99.90
38973;DHT22;25333;50.762;4.470;2023-11-21T02:24:32;9.20;99.90
38973;DHT22;25333;50.762;4.470;2023-11-21T02:26:58;9.30;99.90
38973;DHT22;25333;50.762;4.470;2023-11-21T02:29:24;9.30;99.90
38973;DHT22;25333;50.762;4.470;2023-11-21T02:31:55;9.30;99.90
38973;DHT22;25333;50.762;4.470;2023-11-21T02:34:22;9.30;99.90
38973;DHT22;25333;50.762;4.470;2023-11-21T02:36:49;9.30;99.90
38973;DHT22;25333;50.762;4.470;2023-11-21T02:39:17;9.30;99.90
38973;DHT22;25333;50.762;4.470;2023-11-21T02:41:44;9.30;99.90
38973;DHT22;25333;50.762;4.470;2023-11-21T02:44:10;9.30;99.90
38973;DHT22;25333;50.762;4.470;2023-11-21T02:46:36;9.30;99.90
38973;DHT22;25333;50.762;4.470;2023-11-21T02:49:05;9.30;99.90
38973;DHT22;25333;50.762;4.470;2023-11-21T02:51:36;9.30;99.90
38973;DHT22;25333;50.762;4.470;2023-11-21T02:54:03;9.30;99.90
38973;DHT22;25333;50.762;4.470;2023-11-21T02:56:32;9.30;99.90
38973;DHT22;25333;50.762;4.470;2023-11-21T02:58:59;9.30;99.90
38973;DHT22;25333;50.762;4.470;2023-11-21T03:01:25;9.30;99.90
38973;DHT22;25333;50.762;4.470;2023-11-21T03:03:51;9.40;99.90
38973;DHT22;25333;50.762;4.470;2023-11-21T03:06:18;9.30;99.90
38973;DHT22;25333;50.762;4.470;2023-11-21T03:08:44;9.30;99.90
38973;DHT22;25333;50.762;4.470;2023-11-21T03:11:09;9.30;99.90
38973;DHT22;25333;50.762;4.470;2023-11-21T03:13:35;9.30;99.90
38973;DHT22;25333;50.762;4.470;2023-11-21T03:16:00;9.30;99.90
38973;DHT22;25333;50.762;4.470;2023-11-21T03:18:26;9.30;99.90
38973;DHT22;25333;50.762;4.470;2023-11-21T03:20:54;9.30;99.90
38973;DHT22;25333;50.762;4.470;2023-11-21T03:23:20;9.30;99.90
38973;DHT22;25333;50.762;4.470;2023-11-21T03:25:46;9.30;99.90
38973;DHT22;25333;50.762;4.470;2023-11-21T03:28:11;9.30;99.90
38973;DHT22;25333;50.762;4.470;2023-11-21T03:30:37;9.30;99.90
38973;DHT22;25333;50.762;4.470;2023-11-21T03:33:02;9.30;99.90
38973;DHT22;25333;50.762;4.470;2023-11-21T03:35:28;9.30;99.90
38973;DHT22;25333;50.762;4.470;2023-11-21T03:37:54;9.30;99.90
38973;DHT22;25333;50.762;4.470;2023-11-21T03:40:20;9.30;99.90
38973;DHT22;25333;50.762;4.470;2023-11-21T03:42:46;9.30;99.90
38973;DHT22;25333;50.762;4.470;2023-11-21T03:45:12;9.30;99.90
38973;DHT22;25333;50.762;4.470;2023-11-21T03:47:42;9.30;99.90
38973;DHT22;25333;50.762;4.470;2023-11-21T03:50:08;9.30;99.90
38973;DHT22;25333;50.762;4.470;2023-11-21T03:52:34;9.30;99.90
38973;DHT22;25333;50.762;4.470;2023-11-21T03:55:01;9.30;99.90
38973;DHT22;25333;50.762;4.470;2023-11-21T03:57:27;9.30;99.90
38973;DHT22;25333;50.762;4.470;2023-11-21T03:59:53;9.30;99.90
38973;DHT22;25333;50.762;4.470;2023-11-21T04:02:19;9.30;99.90
38973;DHT22;25333;50.762;4.470;2023-11-21T04:04:45;9.30;99.90
38973;DHT22;25333;50.762;4.470;2023-11-21T04:07:10;9.30;99.90
38973;DHT22;25333;50.762;4.470;2023-11-21T04:09:36;9.30;99.90
38973;DHT22;25333;50.762;4.470;2023-11-21T04:12:02;9.30;99.90
38973;DHT22;25333;50.762;4.470;2023-11-21T04:14:28;9.30;99.90
38973;DHT22;25333;50.762;4.470;2023-11-21T04:16:53;9.40;99.90
38973;DHT22;25333;50.762;4.470;2023-11-21T04:19:19;9.30;99.90
38973;DHT22;25333;50.762;4.470;2023-11-21T04:21:45;9.40;99.90
38973;DHT22;25333;50.762;4.470;2023-11-21T04:24:11;9.40;99.90
38973;DHT22;25333;50.762;4.470;2023-11-21T04:26:37;9.40;99.90
38973;DHT22;25333;50.762;4.470;2023-11-21T04:29:03;9.40;99.90
38973;DHT22;25333;50.762;4.470;2023-11-21T04:31:30;9.40;99.90
38973;DHT22;25333;50.762;4.470;2023-11-21T04:33:56;9.40;99.90
38973;DHT22;25333;50.762;4.470;2023-11-21T04:36:21;9.40;99.90
38973;DHT22;25333;50.762;4.470;2023-11-21T04:38:47;9.50;99.90
38973;DHT22;25333;50.762;4.470;2023-11-21T04:41:12;9.50;99.90
38973;DHT22;25333;50.762;4.470;2023-11-21T04:43:38;9.50;99.90
38973;DHT22;25333;50.762;4.470;2023-11-21T04:46:04;9.50;99.90
38973;DHT22;25333;50.762;4.470;2023-11-21T04:48:29;9.50;99.90
38973;DHT22;25333;50.762;4.470;2023-11-21T04:50:55;9.50;99.90
38973;DHT22;25333;50.762;4.470;2023-11-21T04:53:20;9.50;99.90
38973;DHT22;25333;50.762;4.470;2023-11-21T04:55:46;9.50;99.90
38973;DHT22;25333;50.762;4.470;2023-11-21T04:58:14;9.50;99.90
38973;DHT22;25333;50.762;4.470;2023-11-21T05:00:39;9.50;99.90
38973;DHT22;25333;50.762;4.470;2023-11-21T05:03:05;9.50;99.90
38973;DHT22;25333;50.762;4.470;2023-11-21T05:05:32;9.50;99.90
38973;DHT22;25333;50.762;4.470;2023-11-21T05:07:59;9.50;99.90
38973;DHT22;25333;50.762;4.470;2023-11-21T05:10:25;9.50;99.90
38973;DHT22;25333;50.762;4.470;2023-11-21T05:12:50;9.50;99.90
38973;DHT22;25333;50.762;4.470;2023-11-21T05:15:17;9.50;99.90
38973;DHT22;25333;50.762;4.470;2023-11-21T05:17:43;9.60;99.90
38973;DHT22;25333;50.762;4.470;2023-11-21T05:20:14;9.50;99.90
38973;DHT22;25333;50.762;4.470;2023-11-21T05:22:43;9.60;99.90
38973;DHT22;25333;50.762;4.470;2023-11-21T05:25:09;9.50;99.90
38973;DHT22;25333;50.762;4.470;2023-11-21T05:27:35;9.50;99.90
38973;DHT22;25333;50.762;4.470;2023-11-21T05:30:05;9.50;99.90
38973;DHT22;25333;50.762;4.470;2023-11-21T05:32:34;9.60;99.90
38973;DHT22;25333;50.762;4.470;2023-11-21T05:35:00;9.50;99.90
38973;DHT22;25333;50.762;4.470;2023-11-21T05:37:26;9.50;99.90
38973;DHT22;25333;50.762;4.470;2023-11-21T05:39:53;9.50;99.90
38973;DHT22;25333;50.762;4.470;2023-11-21T05:42:19;9.50;99.90
38973;DHT22;25333;50.762;4.470;2023-11-21T05:44:46;9.50;99.90
38973;DHT22;25333;50.762;4.470;2023-11-21T05:47:12;9.50;99.90
38973;DHT22;25333;50.762;4.470;2023-11-21T05:49:39;9.50;99.90
38973;DHT22;25333;50.762;4.470;2023-11-21T05:52:05;9.60;99.90
38973;DHT22;25333;50.762;4.470;2023-11-21T05:54:31;9.60;99.90
38973;DHT22;25333;50.762;4.470;2023-11-21T05:56:56;9.60;99.90
38973;DHT22;25333;50.762;4.470;2023-11-21T05:59:23;9.60;99.90
38973;DHT22;25333;50.762;4.470;2023-11-21T06:01:49;9.60;99.90
38973;DHT22;25333;50.762;4.470;2023-11-21T06:04:14;9.60;99.90
38973;DHT22;25333;50.762;4.470;2023-11-21T06:06:40;9.60;99.90
38973;DHT22;25333;50.762;4.470;2023-11-21T06:09:06;9.60;99.90
38973;DHT22;25333;50.762;4.470;2023-11-21T06:11:34;9.60;99.90
38973;DHT22;25333;50.762;4.470;2023-11-21T06:14:00;9.60;99.90
38973;DHT22;25333;50.762;4.470;2023-11-21T06:16:25;9.60;99.90
38973;DHT22;25333;50.762;4.470;2023-11-21T06:18:51;9.60;99.90
38973;DHT22;25333;50.762;4.470;2023-11-21T06:21:17;9.60;99.90
38973;DHT22;25333;50.762;4.470;2023-11-21T06:23:43;9.60;99.90
38973;DHT22;25333;50.762;4.470;2023-11-21T06:26:09;9.60;99.90
38973;DHT22;25333;50.762;4.470;2023-11-21T06:28:35;9.60;99.90
38973;DHT22;25333;50.762;4.470;2023-11-21T06:31:01;9.60;99.90
38973;DHT22;25333;50.762;4.470;2023-11-21T06:33:31;9.60;99.90
38973;DHT22;25333;50.762;4.470;2023-11-21T06:35:57;9.60;99.90
38973;DHT22;25333;50.762;4.470;2023-11-21T06:38:23;9.60;99.90
38973;DHT22;25333;50.762;4.470;2023-11-21T06:40:48;9.60;99.90
38973;DHT22;25333;50.762;4.470;2023-11-21T06:43:14;9.60;99.90
38973;DHT22;25333;50.762;4.470;2023-11-21T06:45:40;9.60;99.90
38973;DHT22;25333;50.762;4.470;2023-11-21T06:48:06;9.60;99.90
38973;DHT22;25333;50.762;4.470;2023-11-21T06:50:31;9.60;99.90
38973;DHT22;25333;50.762;4.470;2023-11-21T06:52:57;9.70;99.90
38973;DHT22;25333;50.762;4.470;2023-11-21T06:55:23;9.70;99.90
38973;DHT22;25333;50.762;4.470;2023-11-21T06:57:48;9.70;99.90
38973;DHT22;25333;50.762;4.470;2023-11-21T07:00:15;9.70;99.90
38973;DHT22;25333;50.762;4.470;2023-11-21T07:02:43;9.70;99.90
38973;DHT22;25333;50.762;4.470;2023-11-21T07:05:09;9.70;99.90
38973;DHT22;25333;50.762;4.470;2023-11-21T07:07:35;9.70;99.90
38973;DHT22;25333;50.762;4.470;2023-11-21T07:10:02;9.80;99.90
38973;DHT22;25333;50.762;4.470;2023-11-21T07:12:30;9.70;99.90
38973;DHT22;25333;50.762;4.470;2023-11-21T07:14:56;9.70;99.90
38973;DHT22;25333;50.762;4.470;2023-11-21T07:17:22;9.70;99.90
38973;DHT22;25333;50.762;4.470;2023-11-21T07:19:48;9.80;99.90
38973;DHT22;25333;50.762;4.470;2023-11-21T07:22:15;9.80;99.90
38973;DHT22;25333;50.762;4.470;2023-11-21T07:24:51;9.80;99.90
38973;DHT22;25333;50.762;4.470;2023-11-21T07:27:17;9.80;99.90
38973;DHT22;25333;50.762;4.470;2023-11-21T07:29:43;9.80;99.90
38973;DHT22;25333;50.762;4.470;2023-11-21T07:32:09;9.80;99.90
38973;DHT22;25333;50.762;4.470;2023-11-21T07:34:36;9.80;99.90
38973;DHT22;25333;50.762;4.470;2023-11-21T07:37:02;9.80;99.90
38973;DHT22;25333;50.762;4.470;2023-11-21T07:39:28;9.80;99.90
38973;DHT22;25333;50.762;4.470;2023-11-21T07:41:54;9.80;99.90
38973;DHT22;25333;50.762;4.470;2023-11-21T07:44:19;9.80;99.90
38973;DHT22;25333;50.762;4.470;2023-11-21T07:46:45;9.90;99.90
38973;DHT22;25333;50.762;4.470;2023-11-21T07:49:12;9.80;99.90
38973;DHT22;25333;50.762;4.470;2023-11-21T07:51:41;9.90;99.90
38973;DHT22;25333;50.762;4.470;2023-11-21T07:54:07;9.90;99.90
38973;DHT22;25333;50.762;4.470;2023-11-21T07:56:33;9.90;99.90
38973;DHT22;25333;50.762;4.470;2023-11-21T07:58:58;9.90;99.90
38973;DHT22;25333;50.762;4.470;2023-11-21T08:01:24;9.90;99.90
38973;DHT22;25333;50.762;4.470;2023-11-21T08:03:50;9.90;99.90
38973;DHT22;25333;50.762;4.470;2023-11-21T08:06:18;9.90;99.90
38973;DHT22;25333;50.762;4.470;2023-11-21T08:08:43;9.90;99.90
38973;DHT22;25333;50.762;4.470;2023-11-21T08:11:09;9.90;99.90
38973;DHT22;25333;50.762;4.470;2023-11-21T08:13:36;9.90;99.90
38973;DHT22;25333;50.762;4.470;2023-11-21T08:16:01;10.00;99.90
38973;DHT22;25333;50.762;4.470;2023-11-21T08:18:28;10.00;99.90
38973;DHT22;25333;50.762;4.470;2023-11-21T08:20:54;10.00;99.90
38973;DHT22;25333;50.762;4.470;2023-11-21T08:23:21;10.10;99.90
38973;DHT22;25333;50.762;4.470;2023-11-21T08:25:51;10.00;99.90
38973;DHT22;25333;50.762;4.470;2023-11-21T08:28:16;10.00;99.90
38973;DHT22;25333;50.762;4.470;2023-11-21T08:30:42;10.10;99.90
38973;DHT22;25333;50.762;4.470;2023-11-21T08:33:10;10.10;99.90
38973;DHT22;25333;50.762;4.470;2023-11-21T08:35:37;10.00;99.90
38973;DHT22;25333;50.762;4.470;2023-11-21T08:38:03;10.00;99.90
38973;DHT22;25333;50.762;4.470;2023-11-21T08:40:28;10.00;99.90
38973;DHT22;25333;50.762;4.470;2023-11-21T08:42:54;10.00;99.90
38973;DHT22;25333;50.762;4.470;2023-11-21T08:45:24;10.00;99.90
38973;DHT22;25333;50.762;4.470;2023-11-21T08:47:50;10.10;99.90
38973;DHT22;25333;50.762;4.470;2023-11-21T08:50:16;10.10;99.90
38973;DHT22;25333;50.762;4.470;2023-11-21T08:52:42;10.20;99.90
38973;DHT22;25333;50.762;4.470;2023-11-21T08:55:09;10.20;99.90
38973;DHT22;25333;50.762;4.470;2023-11-21T08:57:43;10.20;99.90
38973;DHT22;25333;50.762;4.470;2023-11-21T09:00:09;10.30;99.90
38973;DHT22;25333;50.762;4.470;2023-11-21T09:02:43;10.30;99.90
38973;DHT22;25333;50.762;4.470;2023-11-21T09:05:10;10.40;99.90
38973;DHT22;25333;50.762;4.470;2023-11-21T09:07:37;10.30;99.90
38973;DHT22;25333;50.762;4.470;2023-11-21T09:10:03;10.40;99.90
38973;DHT22;25333;50.762;4.470;2023-11-21T09:12:31;10.40;99.90
38973;DHT22;25333;50.762;4.470;2023-11-21T09:14:58;10.40;99.90
38973;DHT22;25333;50.762;4.470;2023-11-21T09:17:23;10.40;99.90
38973;DHT22;25333;50.762;4.470;2023-11-21T09:19:49;10.50;99.90
38973;DHT22;25333;50.762;4.470;2023-11-21T09:22:17;10.50;99.90
38973;DHT22;25333;50.762;4.470;2023-11-21T09:24:43;10.50;99.90
38973;DHT22;25333;50.762;4.470;2023-11-21T09:27:09;10.50;99.90
38973;DHT22;25333;50.762;4.470;2023-11-21T09:29:38;10.50;99.90
38973;DHT22;25333;50.762;4.470;2023-11-21T09:32:05;10.50;99.90
38973;DHT22;25333;50.762;4.470;2023-11-21T09:34:33;10.50;99.90
38973;DHT22;25333;50.762;4.470;2023-11-21T09:36:58;10.50;99.90
38973;DHT22;25333;50.762;4.470;2023-11-21T09:39:24;10.50;99.90
38973;DHT22;25333;50.762;4.470;2023-11-21T09:41:56;10.50;99.90
38973;DHT22;25333;50.762;4.470;2023-11-21T09:44:58;10.40;99.90
38973;DHT22;25333;50.762;4.470;2023-11-21T09:47:24;10.40;99.90
38973;DHT22;25333;50.762;4.470;2023-11-21T09:49:50;10.40;99.90
38973;DHT22;25333;50.762;4.470;2023-11-21T09:52:27;10.40;99.90
38973;DHT22;25333;50.762;4.470;2023-11-21T09:54:55;10.50;99.90
38973;DHT22;25333;50.762;4.470;2023-11-21T09:57:24;10.50;99.90
38973;DHT22;25333;50.762;4.470;2023-11-21T09:59:54;10.50;99.90
38973;DHT22;25333;50.762;4.470;2023-11-21T10:02:26;10.50;99.90
38973;DHT22;25333;50.762;4.470;2023-11-21T10:04:54;10.50;99.90
38973;DHT22;25333;50.762;4.470;2023-11-21T10:07:21;10.50;99.90
38973;DHT22;25333;50.762;4.470;2023-11-21T10:09:47;10.60;99.90
38973;DHT22;25333;50.762;4.470;2023-11-21T10:12:15;10.60;99.90
38973;DHT22;25333;50.762;4.470;2023-11-21T10:14:42;10.50;99.90
38973;DHT22;25333;50.762;4.470;2023-11-21T10:17:10;10.60;99.90
38973;DHT22;25333;50.762;4.470;2023-11-21T10:19:39;10.60;99.90
38973;DHT22;25333;50.762;4.470;2023-11-21T10:22:05;10.60;99.90
38973;DHT22;25333;50.762;4.470;2023-11-21T10:24:32;10.60;99.90
38973;DHT22;25333;50.762;4.470;2023-11-21T10:26:58;10.70;99.90
38973;DHT22;25333;50.762;4.470;2023-11-21T10:29:29;10.70;99.90
38973;DHT22;25333;50.762;4.470;2023-11-21T10:31:55;10.70;99.90
38973;DHT22;25333;50.762;4.470;2023-11-21T10:34:24;10.70;99.90
38973;DHT22;25333;50.762;4.470;2023-11-21T10:36:49;10.70;99.90
38973;DHT22;25333;50.762;4.470;2023-11-21T10:39:19;10.70;99.90
38973;DHT22;25333;50.762;4.470;2023-11-21T10:41:48;10.70;99.90
38973;DHT22;25333;50.762;4.470;2023-11-21T10:44:14;10.70;99.90
38973;DHT22;25333;50.762;4.470;2023-11-21T10:46:49;10.60;99.90
38973;DHT22;25333;50.762;4.470;2023-11-21T10:49:20;10.60;99.90
38973;DHT22;25333;50.762;4.470;2023-11-21T10:51:46;10.60;99.90
38973;DHT22;25333;50.762;4.470;2023-11-21T10:54:17;10.60;99.90
38973;DHT22;25333;50.762;4.470;2023-11-21T10:56:43;10.60;99.90
38973;DHT22;25333;50.762;4.470;2023-11-21T10:59:10;10.60;99.90
38973;DHT22;25333;50.762;4.470;2023-11-21T11:01:46;10.60;99.90
38973;DHT22;25333;50.762;4.470;2023-11-21T11:04:14;10.70;99.90
38973;DHT22;25333;50.762;4.470;2023-11-21T11:06:51;10.80;99.90
38973;DHT22;25333;50.762;4.470;2023-11-21T11:09:18;10.80;99.90
38973;DHT22;25333;50.762;4.470;2023-11-21T11:11:44;10.90;99.90
38973;DHT22;25333;50.762;4.470;2023-11-21T11:14:11;10.90;99.90
38973;DHT22;25333;50.762;4.470;2023-11-21T11:16:39;10.90;99.90
38973;DHT22;25333;50.762;4.470;2023-11-21T11:19:09;11.00;99.90
38973;DHT22;25333;50.762;4.470;2023-11-21T11:27:54;11.00;99.90
38973;DHT22;25333;50.762;4.470;2023-11-21T11:36:25;11.10;99.90
38973;DHT22;25333;50.762;4.470;2023-11-21T11:38:51;11.10;99.90
38973;DHT22;25333;50.762;4.470;2023-11-21T11:41:27;11.10;99.90
38973;DHT22;25333;50.762;4.470;2023-11-21T11:43:56;11.10;99.90
38973;DHT22;25333;50.762;4.470;2023-11-21T11:46:41;11.10;99.90
38973;DHT22;25333;50.762;4.470;2023-11-21T11:49:07;11.10;99.90
38973;DHT22;25333;50.762;4.470;2023-11-21T11:51:33;11.10;99.90
38973;DHT22;25333;50.762;4.470;2023-11-21T11:54:01;11.10;99.90
38973;DHT22;25333;50.762;4.470;2023-11-21T11:56:31;11.10;99.90
38973;DHT22;25333;50.762;4.470;2023-11-21T11:59:02;11.20;99.90
38973;DHT22;25333;50.762;4.470;2023-11-21T12:01:29;11.20;99.90
38973;DHT22;25333;50.762;4.470;2023-11-21T12:07:02;11.30;99.90
38973;DHT22;25333;50.762;4.470;2023-11-21T12:09:29;11.30;99.90
38973;DHT22;25333;50.762;4.470;2023-11-21T12:11:55;11.40;99.90
38973;DHT22;25333;50.762;4.470;2023-11-21T12:14:24;11.40;99.90
38973;DHT22;25333;50.762;4.470;2023-11-21T12:16:51;11.40;99.90
38973;DHT22;25333;50.762;4.470;2023-11-21T12:19:17;11.40;99.90
38973;DHT22;25333;50.762;4.470;2023-11-21T12:21:43;11.40;99.90
38973;DHT22;25333;50.762;4.470;2023-11-21T12:24:09;11.30;99.90
38973;DHT22;25333;50.762;4.470;2023-11-21T12:26:39;11.40;99.90
38973;DHT22;25333;50.762;4.470;2023-11-21T12:29:05;11.30;99.90
38973;DHT22;25333;50.762;4.470;2023-11-21T12:31:33;11.30;99.90
38973;DHT22;25333;50.762;4.470;2023-11-21T12:33:58;11.30;99.90
38973;DHT22;25333;50.762;4.470;2023-11-21T12:36:24;11.30;99.90
38973;DHT22;25333;50.762;4.470;2023-11-21T12:38:51;11.30;99.90
38973;DHT22;25333;50.762;4.470;2023-11-21T12:41:16;11.30;99.90
38973;DHT22;25333;50.762;4.470;2023-11-21T12:43:47;11.20;99.90
38973;DHT22;25333;50.762;4.470;2023-11-21T12:46:13;11.20;99.90
38973;DHT22;25333;50.762;4.470;2023-11-21T12:48:44;11.20;99.90
38973;DHT22;25333;50.762;4.470;2023-11-21T12:51:11;11.20;99.90
38973;DHT22;25333;50.762;4.470;2023-11-21T12:53:38;11.20;99.90
38973;DHT22;25333;50.762;4.470;2023-11-21T12:56:13;11.20;99.90
38973;DHT22;25333;50.762;4.470;2023-11-21T12:58:40;11.20;99.90
38973;DHT22;25333;50.762;4.470;2023-11-21T13:01:07;11.20;99.90
38973;DHT22;25333;50.762;4.470;2023-11-21T13:03:38;11.20;99.90
38973;DHT22;25333;50.762;4.470;2023-11-21T13:06:05;11.20;99.90
38973;DHT22;25333;50.762;4.470;2023-11-21T13:08:31;11.20;99.90
38973;DHT22;25333;50.762;4.470;2023-11-21T13:10:58;11.20;99.90
38973;DHT22;25333;50.762;4.470;2023-11-21T13:13:25;11.20;99.90
38973;DHT22;25333;50.762;4.470;2023-11-21T13:15:54;11.20;99.90
38973;DHT22;25333;50.762;4.470;2023-11-21T13:18:25;11.20;99.90
38973;DHT22;25333;50.762;4.470;2023-11-21T13:20:53;11.30;99.90
38973;DHT22;25333;50.762;4.470;2023-11-21T13:23:18;11.30;99.90
38973;DHT22;25333;50.762;4.470;2023-11-21T13:25:44;11.30;99.90
38973;DHT22;25333;50.762;4.470;2023-11-21T13:28:14;11.30;99.90
38973;DHT22;25333;50.762;4.470;2023-11-21T13:30:46;11.30;99.90
38973;DHT22;25333;50.762;4.470;2023-11-21T13:33:12;11.20;99.90
38973;DHT22;25333;50.762;4.470;2023-11-21T13:35:43;11.30;99.90
38973;DHT22;25333;50.762;4.470;2023-11-21T13:38:15;11.30;99.90
38973;DHT22;25333;50.762;4.470;2023-11-21T13:40:49;11.30;99.90
38973;DHT22;25333;50.762;4.470;2023-11-21T13:43:19;11.30;99.90
38973;DHT22;25333;50.762;4.470;2023-11-21T13:45:46;11.30;99.90
38973;DHT22;25333;50.762;4.470;2023-11-21T13:48:13;11.30;99.90
38973;DHT22;25333;50.762;4.470;2023-11-21T13:50:40;11.30;99.90
38973;DHT22;25333;50.762;4.470;2023-11-21T13:53:14;11.20;99.90
38973;DHT22;25333;50.762;4.470;2023-11-21T13:55:51;11.10;99.90
38973;DHT22;25333;50.762;4.470;2023-11-21T13:58:21;11.10;99.90
38973;DHT22;25333;50.762;4.470;2023-11-21T14:01:05;11.10;99.90
38973;DHT22;25333;50.762;4.470;2023-11-21T14:03:38;11.10;99.90
38973;DHT22;25333;50.762;4.470;2023-11-21T14:06:15;11.00;99.90
38973;DHT22;25333;50.762;4.470;2023-11-21T14:08:48;11.10;99.90
38973;DHT22;25333;50.762;4.470;2023-11-21T14:11:13;11.00;99.90
38973;DHT22;25333;50.762;4.470;2023-11-21T14:13:43;11.00;99.90
38973;DHT22;25333;50.762;4.470;2023-11-21T14:16:13;11.10;99.90
38973;DHT22;25333;50.762;4.470;2023-11-21T14:18:39;11.10;99.90
38973;DHT22;25333;50.762;4.470;2023-11-21T14:21:20;11.10;99.90
38973;DHT22;25333;50.762;4.470;2023-11-21T14:23:47;11.10;99.90
38973;DHT22;25333;50.762;4.470;2023-11-21T14:26:14;11.10;99.90
38973;DHT22;25333;50.762;4.470;2023-11-21T14:28:40;11.20;99.90
38973;DHT22;25333;50.762;4.470;2023-11-21T14:31:07;11.10;99.90
38973;DHT22;25333;50.762;4.470;2023-11-21T14:33:33;11.10;99.90
38973;DHT22;25333;50.762;4.470;2023-11-21T14:35:58;11.10;99.90
38973;DHT22;25333;50.762;4.470;2023-11-21T14:38:24;11.10;99.90
38973;DHT22;25333;50.762;4.470;2023-11-21T14:40:50;11.10;99.90
38973;DHT22;25333;50.762;4.470;2023-11-21T14:43:15;11.10;99.90
38973;DHT22;25333;50.762;4.470;2023-11-21T14:45:42;11.10;99.90
38973;DHT22;25333;50.762;4.470;2023-11-21T14:48:07;11.10;99.90
38973;DHT22;25333;50.762;4.470;2023-11-21T14:50:41;11.20;99.90
38973;DHT22;25333;50.762;4.470;2023-11-21T14:53:08;11.20;99.90
38973;DHT22;25333;50.762;4.470;2023-11-21T14:55:34;11.20;99.90
38973;DHT22;25333;50.762;4.470;2023-11-21T14:58:16;11.10;99.90
38973;DHT22;25333;50.762;4.470;2023-11-21T15:00:49;11.10;99.90
38973;DHT22;25333;50.762;4.470;2023-11-21T15:03:22;11.10;99.90
38973;DHT22;25333;50.762;4.470;2023-11-21T15:05:59;11.10;99.90
38973;DHT22;25333;50.762;4.470;2023-11-21T15:08:37;11.10;99.90
38973;DHT22;25333;50.762;4.470;2023-11-21T15:11:03;11.10;99.90
38973;DHT22;25333;50.762;4.470;2023-11-21T15:13:32;11.10;99.90
38973;DHT22;25333;50.762;4.470;2023-11-21T15:15:58;11.00;99.90
38973;DHT22;25333;50.762;4.470;2023-11-21T15:18:33;11.10;99.90
38973;DHT22;25333;50.762;4.470;2023-11-21T15:20:59;11.00;99.90
38973;DHT22;25333;50.762;4.470;2023-11-21T15:23:25;11.00;99.90
38973;DHT22;25333;50.762;4.470;2023-11-21T15:25:53;11.00;99.90
38973;DHT22;25333;50.762;4.470;2023-11-21T15:28:19;10.90;99.90
38973;DHT22;25333;50.762;4.470;2023-11-21T15:30:45;10.90;99.90
38973;DHT22;25333;50.762;4.470;2023-11-21T15:33:13;10.90;99.90
38973;DHT22;25333;50.762;4.470;2023-11-21T15:35:39;10.90;99.90
38973;DHT22;25333;50.762;4.470;2023-11-21T15:38:06;10.90;99.90
38973;DHT22;25333;50.762;4.470;2023-11-21T15:40:33;10.90;99.90
38973;DHT22;25333;50.762;4.470;2023-11-21T15:42:59;10.80;99.90
38973;DHT22;25333;50.762;4.470;2023-11-21T15:45:25;10.90;99.90
38973;DHT22;25333;50.762;4.470;2023-11-21T15:47:51;10.80;99.90
38973;DHT22;25333;50.762;4.470;2023-11-21T15:50:18;10.90;99.90
38973;DHT22;25333;50.762;4.470;2023-11-21T15:52:44;10.90;99.90
38973;DHT22;25333;50.762;4.470;2023-11-21T15:55:11;10.80;99.90
38973;DHT22;25333;50.762;4.470;2023-11-21T15:57:36;10.80;99.90